Главная страница
METAR-TAF:

METAR-TAF

Аэропорты :

New Castle, Пенсильвания, США

широта: 41-01-31N, долгота: 080-24-48W, высота над уровнем моря: 326 м

Текущие метеонаблюдения

Эта сводка был подготовлена 46 минут назад, в 05:12 UTC
Ветер 8 Узел от юго-западный с порывами до 15 Узел
Температура 9°C
Влажность 81%
Давление 1011 hPa
Видимость: 16.1 км
Рассеянная облачность на высоте 1800 фута
Рассеянная облачность на высоте 2400 фута
Сплошная облачность на высоте 4000 фута

METAR: KUCP 200512Z AUTO 22008G15KT 10SM BKN018 BKN024 OVC040 09/06 A2984 RMK AO2

Время: 01:58 (05:58 UTC)


TAF: отсутствует

Метеонаблюдения и прогнозы для более 4000 аэропортов (сводки METAR и TAF).

Имеющиеся станции представлены на карте желтыми и красными точками.

Чтобы увидеть название станции, наведите на нее мышь.

Затем щелкните, чтобы увидеть метеонаблюдения и метеопрогнозы.

Управление картой: чтобы увеличить масштаб, щелкните зеленые кнопки с черным крестиком; чтобы уменьшить масштаб, щелкните зеленую кнопку с тире; для просмотра соседних карт щелкайте зеленые стрелки.


METAR-TAF: